createdAt,value
2023-03-05T00:00:49.623Z,9.747450
2023-03-05T00:01:49.618Z,9.747499
2023-03-05T00:02:49.729Z,9.747539
2023-03-05T00:03:49.665Z,9.747466
2023-03-05T00:04:49.596Z,9.747493
2023-03-05T00:05:49.590Z,9.747475
2023-03-05T00:06:49.582Z,9.747453
2023-03-05T00:07:49.623Z,9.747465
2023-03-05T00:08:49.557Z,9.747414
2023-03-05T00:09:49.549Z,9.747414
2023-03-05T00:10:49.540Z,9.747384
2023-03-05T00:11:49.543Z,9.747383
2023-03-05T00:12:49.554Z,9.747467
2023-03-05T00:13:49.544Z,9.747409
2023-03-05T00:14:49.514Z,9.747472
2023-03-05T00:15:49.518Z,9.747620
2023-03-05T00:16:49.486Z,9.747574
2023-03-05T00:17:49.516Z,9.747500
2023-03-05T00:18:49.485Z,9.747473
2023-03-05T00:19:49.492Z,9.747360
2023-03-05T00:20:49.504Z,9.747231
2023-03-05T00:21:49.449Z,9.747419
2023-03-05T00:22:49.466Z,9.747425
2023-03-05T00:23:49.432Z,9.747559
2023-03-05T00:24:49.422Z,9.747459
2023-03-05T00:25:49.429Z,9.747328
2023-03-05T00:26:49.406Z,9.747262
2023-03-05T00:27:49.431Z,9.747344
2023-03-05T00:28:49.398Z,9.747529
2023-03-05T00:29:49.392Z,9.747460
2023-03-05T00:30:49.415Z,9.747468
2023-03-05T00:31:49.380Z,9.747490
2023-03-05T00:32:49.401Z,9.747510
2023-03-05T00:33:49.364Z,9.747427
2023-03-05T00:34:49.366Z,9.747426
2023-03-05T00:35:49.387Z,9.747474
2023-03-05T00:36:49.345Z,9.747467
2023-03-05T00:37:49.393Z,9.747369
2023-03-05T00:38:49.330Z,9.747333
2023-03-05T00:39:49.337Z,9.747427
2023-03-05T00:40:49.310Z,9.747433
2023-03-05T00:41:49.303Z,9.747321
2023-03-05T00:42:49.334Z,9.747426
2023-03-05T00:43:49.287Z,9.747414
2023-03-05T00:44:49.273Z,9.747470
2023-03-05T00:45:49.267Z,9.747513
2023-03-05T00:46:49.319Z,9.747461
2023-03-05T00:47:49.309Z,9.747440
2023-03-05T00:48:49.273Z,9.747562
2023-03-05T00:49:49.280Z,9.747452
2023-03-05T00:50:49.238Z,9.747447
2023-03-05T00:51:49.280Z,9.747486
2023-03-05T00:52:49.246Z,9.747483
2023-03-05T00:53:49.209Z,9.747368
2023-03-05T00:54:49.205Z,9.747388
2023-03-05T00:55:49.203Z,9.747428
2023-03-05T00:56:49.208Z,9.747115
2023-03-05T00:57:49.217Z,9.747209
2023-03-05T00:58:49.189Z,9.747275
2023-03-05T00:59:49.155Z,9.747453
2023-03-05T01:00:49.150Z,9.747383
2023-03-05T01:01:49.192Z,9.747444
2023-03-05T01:02:49.158Z,9.747521
2023-03-05T01:03:49.162Z,9.747500
2023-03-05T01:04:49.151Z,9.747339
2023-03-05T01:05:49.097Z,9.747394
2023-03-05T01:06:49.108Z,9.747487
2023-03-05T01:07:49.112Z,9.747520
2023-03-05T01:08:49.098Z,9.747417
2023-03-05T01:09:49.074Z,9.747394
2023-03-05T01:10:49.060Z,9.747494
2023-03-05T01:11:49.062Z,9.747442
2023-03-05T01:12:49.069Z,9.747388
2023-03-05T01:13:49.111Z,9.747387
2023-03-05T01:14:49.041Z,9.747391
2023-03-05T01:15:49.094Z,9.747390
2023-03-05T01:16:49.018Z,9.747472
2023-03-05T01:17:49.025Z,9.747469
2023-03-05T01:18:49.011Z,9.747438
2023-03-05T01:19:48.985Z,9.747372
2023-03-05T01:20:49.024Z,9.747416
2023-03-05T01:21:48.963Z,9.747545
2023-03-05T01:22:48.989Z,9.747582
2023-03-05T01:23:48.977Z,9.747482
2023-03-05T01:24:48.946Z,9.747535
2023-03-05T01:25:49.002Z,9.747609
2023-03-05T01:26:48.938Z,9.747419
2023-03-05T01:27:48.946Z,9.747370
2023-03-05T01:28:48.913Z,9.747565
2023-03-05T01:29:48.916Z,9.747475
2023-03-05T01:30:48.908Z,9.747544
2023-03-05T01:31:48.974Z,9.747704
2023-03-05T01:32:48.943Z,9.747570
2023-03-05T01:33:48.902Z,9.747504
2023-03-05T01:34:48.875Z,9.747489
2023-03-05T01:35:49.092Z,9.747449
2023-03-05T01:36:48.862Z,9.747375
2023-03-05T01:37:48.882Z,9.747319
2023-03-05T01:38:48.833Z,9.747418
2023-03-05T01:39:48.841Z,9.747367
2023-03-05T01:40:48.831Z,9.747393
2023-03-05T01:41:48.892Z,9.747390
2023-03-05T01:42:48.837Z,9.747419
2023-03-05T01:43:48.815Z,9.747414
2023-03-05T01:44:48.795Z,9.747445
2023-03-05T01:45:48.842Z,9.747324
2023-03-05T01:46:48.780Z,9.747323
2023-03-05T01:47:48.797Z,9.747371
2023-03-05T01:48:48.820Z,9.747298
2023-03-05T01:49:48.826Z,9.747483
2023-03-05T01:50:48.776Z,9.747408
2023-03-05T01:51:48.770Z,9.747351
2023-03-05T01:52:48.770Z,9.747412
2023-03-05T01:53:48.730Z,9.747442
2023-03-05T01:54:48.719Z,9.747359
2023-03-05T01:55:48.704Z,9.747351
2023-03-05T01:56:48.744Z,9.747383
2023-03-05T01:57:48.724Z,9.747286
2023-03-05T01:58:48.688Z,9.747331
2023-03-05T01:59:48.684Z,9.747397
2023-03-05T02:00:48.707Z,9.747398
2023-03-05T02:01:49.712Z,9.747324
2023-03-05T02:02:48.723Z,9.747380
2023-03-05T02:03:48.883Z,9.747302
2023-03-05T02:04:48.680Z,9.747375
2023-03-05T02:05:48.663Z,9.747225
2023-03-05T02:06:48.617Z,9.747374
2023-03-05T02:07:48.620Z,9.747216
2023-03-05T02:08:48.634Z,9.747174
2023-03-05T02:09:48.602Z,9.747448
2023-03-05T02:10:48.617Z,9.747350
2023-03-05T02:11:48.605Z,9.747201
2023-03-05T02:12:48.616Z,9.747350
2023-03-05T02:13:48.597Z,9.747331
2023-03-05T02:14:48.576Z,9.747308
2023-03-05T02:15:48.564Z,9.747270
2023-03-05T02:16:48.577Z,9.747300
2023-03-05T02:17:48.632Z,9.747213
2023-03-05T02:18:48.564Z,9.747232
2023-03-05T02:19:48.629Z,9.747343
2023-03-05T02:20:48.518Z,9.747352
2023-03-05T02:21:48.543Z,9.747378
2023-03-05T02:22:48.515Z,9.747333
2023-03-05T02:23:48.542Z,9.747339
2023-03-05T02:24:48.491Z,9.747369
2023-03-05T02:25:48.484Z,9.747400
2023-03-05T02:26:49.472Z,9.747290
2023-03-05T02:27:48.485Z,9.747305
2023-03-05T02:28:48.489Z,9.747264
2023-03-05T02:29:48.484Z,9.747424
2023-03-05T02:30:48.482Z,9.747358
2023-03-05T02:31:48.481Z,9.747430
2023-03-05T02:32:48.474Z,9.747275
2023-03-05T02:33:48.496Z,9.747358
2023-03-05T02:34:48.468Z,9.747236
2023-03-05T02:35:48.488Z,9.747305
2023-03-05T02:36:48.387Z,9.747397
2023-03-05T02:37:48.396Z,9.747277
2023-03-05T02:38:48.418Z,9.747356
2023-03-05T02:39:48.366Z,9.747354
2023-03-05T02:40:48.393Z,9.747333
2023-03-05T02:41:48.348Z,9.747424
2023-03-05T02:42:48.383Z,9.747540
2023-03-05T02:43:48.367Z,9.747529
2023-03-05T02:44:48.334Z,9.747396
2023-03-05T02:45:48.331Z,9.747432
2023-03-05T02:46:48.319Z,9.747371
2023-03-05T02:47:48.307Z,9.747398
2023-03-05T02:48:48.331Z,9.747458
2023-03-05T02:49:48.292Z,9.747400
2023-03-05T02:50:48.284Z,9.747299
2023-03-05T02:51:48.282Z,9.747317
2023-03-05T02:52:48.279Z,9.747398
2023-03-05T02:53:48.306Z,9.747329
2023-03-05T02:54:48.258Z,9.747388
2023-03-05T02:55:48.251Z,9.747420
2023-03-05T02:56:48.238Z,9.747498
2023-03-05T02:57:48.246Z,9.747437
2023-03-05T02:58:48.252Z,9.747271
2023-03-05T02:59:48.241Z,9.747365
2023-03-05T03:00:48.209Z,9.747411
2023-03-05T03:01:48.211Z,9.747500
2023-03-05T03:02:48.219Z,9.747429
2023-03-05T03:03:48.213Z,9.747395
2023-03-05T03:04:48.195Z,9.747546
2023-03-05T03:05:48.185Z,9.747421
2023-03-05T03:06:48.172Z,9.747508
2023-03-05T03:07:48.162Z,9.747526
2023-03-05T03:08:48.221Z,9.747393
2023-03-05T03:09:48.157Z,9.747327
2023-03-05T03:10:48.183Z,9.747173
2023-03-05T03:11:48.144Z,9.747439
2023-03-05T03:12:48.130Z,9.747334
2023-03-05T03:13:48.150Z,9.747333
2023-03-05T03:14:48.109Z,9.747551
2023-03-05T03:15:48.112Z,9.747448
2023-03-05T03:16:48.273Z,9.747402
2023-03-05T03:17:48.090Z,9.747381
2023-03-05T03:18:48.201Z,9.747339
2023-03-05T03:19:48.073Z,9.747359
2023-03-05T03:20:48.073Z,9.747435
2023-03-05T03:21:48.075Z,9.747517
2023-03-05T03:22:48.119Z,9.747535
2023-03-05T03:23:48.097Z,9.747534
2023-03-05T03:24:48.061Z,9.747614
2023-03-05T03:25:48.055Z,9.747739
2023-03-05T03:26:48.037Z,9.747545
2023-03-05T03:27:48.025Z,9.747489
2023-03-05T03:28:48.354Z,9.747499
2023-03-05T03:29:48.016Z,9.747446
2023-03-05T03:30:48.059Z,9.747501
2023-03-05T03:31:47.998Z,9.747581
2023-03-05T03:32:48.009Z,9.747666
2023-03-05T03:33:47.993Z,9.747647
2023-03-05T03:34:49.691Z,9.747613
2023-03-05T03:35:48.076Z,9.747494
2023-03-05T03:36:47.974Z,9.747651
2023-03-05T03:37:47.956Z,9.747615
2023-03-05T03:38:47.974Z,9.747488
2023-03-05T03:39:47.969Z,9.747371
2023-03-05T03:40:47.935Z,9.747733
2023-03-05T03:41:47.923Z,9.747816
2023-03-05T03:42:48.588Z,9.747712
2023-03-05T03:43:48.004Z,9.747499
2023-03-05T03:44:47.933Z,9.747657
2023-03-05T03:45:47.978Z,9.747653
2023-03-05T03:46:47.911Z,9.747656
2023-03-05T03:47:47.880Z,9.747700
2023-03-05T03:48:47.917Z,9.747642
2023-03-05T03:49:47.867Z,9.747982
2023-03-05T03:50:48.599Z,9.748033
2023-03-05T03:51:47.895Z,9.747590
2023-03-05T03:52:47.912Z,9.747483
2023-03-05T03:53:47.861Z,9.747592
2023-03-05T03:54:47.844Z,9.747672
2023-03-05T03:55:47.830Z,9.747447
2023-03-05T03:56:47.926Z,9.747421
2023-03-05T03:57:47.801Z,9.747616
2023-03-05T03:58:47.822Z,9.747534
2023-03-05T03:59:47.817Z,9.747584
2023-03-05T04:00:47.778Z,9.747499
2023-03-05T04:01:47.782Z,9.747288
2023-03-05T04:02:47.866Z,9.747473
2023-03-05T04:03:47.787Z,9.747397
2023-03-05T04:04:47.751Z,9.747399
2023-03-05T04:05:47.754Z,9.747580
2023-03-05T04:06:47.759Z,9.747549
2023-03-05T04:07:47.727Z,9.747448
2023-03-05T04:08:47.746Z,9.747395
2023-03-05T04:09:47.709Z,9.747480
2023-03-05T04:10:48.316Z,9.747426
2023-03-05T04:11:47.765Z,9.747211
2023-03-05T04:12:47.705Z,9.747489
2023-03-05T04:13:47.756Z,9.747480
2023-03-05T04:14:47.677Z,9.747195
2023-03-05T04:15:47.699Z,9.747165
2023-03-05T04:16:47.665Z,9.747279
2023-03-05T04:17:47.655Z,9.747587
2023-03-05T04:18:47.689Z,9.747366
2023-03-05T04:19:47.663Z,9.747489
2023-03-05T04:20:47.625Z,9.747394
2023-03-05T04:21:47.643Z,9.747379
2023-03-05T04:22:47.652Z,9.747389
2023-03-05T04:23:47.654Z,9.747568
2023-03-05T04:24:49.094Z,9.747478
2023-03-05T04:25:47.624Z,9.747302
2023-03-05T04:26:47.655Z,9.747293
2023-03-05T04:27:47.749Z,9.747399
2023-03-05T04:28:47.623Z,9.747626
2023-03-05T04:29:47.616Z,9.747561
2023-03-05T04:30:47.646Z,9.747600
2023-03-05T04:31:47.548Z,9.747779
2023-03-05T04:32:47.550Z,9.747581
2023-03-05T04:33:47.669Z,9.747522
2023-03-05T04:34:47.552Z,9.747361
2023-03-05T04:35:47.534Z,9.747277
2023-03-05T04:36:48.525Z,9.747381
2023-03-05T04:37:47.501Z,9.747894
2023-03-05T04:38:47.494Z,9.747663
2023-03-05T04:39:47.523Z,9.747590
2023-03-05T04:40:47.483Z,9.747253
2023-03-05T04:41:47.466Z,9.747452
2023-03-05T04:42:47.481Z,9.747466
2023-03-05T04:43:47.448Z,9.747243
2023-03-05T04:44:47.483Z,9.747511
2023-03-05T04:45:47.433Z,9.747647
2023-03-05T04:46:47.454Z,9.747379
2023-03-05T04:47:47.434Z,9.747336
2023-03-05T04:48:47.408Z,9.747521
2023-03-05T04:49:47.442Z,9.747508
2023-03-05T04:50:47.427Z,9.747731
2023-03-05T04:51:47.413Z,9.747338
2023-03-05T04:52:47.383Z,9.747437
2023-03-05T04:53:47.373Z,9.747752
2023-03-05T04:54:47.410Z,9.747771
2023-03-05T04:55:47.350Z,9.747293
2023-03-05T04:56:47.419Z,9.747503
2023-03-05T04:57:47.541Z,9.747439
2023-03-05T04:58:47.312Z,9.747422
2023-03-05T04:59:48.346Z,9.747478
2023-03-05T05:00:47.347Z,9.747405
2023-03-05T05:01:47.341Z,9.747524
2023-03-05T05:02:47.352Z,9.747626
2023-03-05T05:03:47.289Z,9.747560
2023-03-05T05:04:47.388Z,9.747483
2023-03-05T05:05:48.094Z,9.747216
2023-03-05T05:06:48.109Z,9.747566
2023-03-05T05:07:50.108Z,9.747665
2023-03-05T05:08:48.155Z,9.747427
2023-03-05T05:09:48.101Z,9.747568
2023-03-05T05:10:49.105Z,9.747286
2023-03-05T05:11:47.781Z,9.747419
2023-03-05T05:12:49.666Z,9.747611
2023-03-05T05:13:47.276Z,9.747230
2023-03-05T05:14:49.148Z,9.747461
2023-03-05T05:15:48.672Z,9.747352
2023-03-05T05:16:47.260Z,9.747396
2023-03-05T05:17:49.108Z,9.747482
2023-03-05T05:19:10.160Z,9.747603
2023-03-05T05:19:47.885Z,9.747802
2023-03-05T05:20:48.162Z,9.747546
2023-03-05T05:21:53.607Z,9.747283
2023-03-05T05:22:48.967Z,9.747552
2023-03-05T05:23:49.132Z,9.747623
2023-03-05T05:24:50.659Z,9.747746
2023-03-05T05:25:48.604Z,9.747524
2023-03-05T05:26:47.884Z,9.747339
2023-03-05T05:27:50.163Z,9.747436
2023-03-05T05:28:51.597Z,9.747454
2023-03-05T05:29:49.621Z,9.747484
2023-03-05T05:30:47.735Z,9.747585
2023-03-05T05:31:48.705Z,9.747888
2023-03-05T05:32:47.863Z,9.747711
2023-03-05T05:33:49.814Z,9.747707
2023-03-05T05:34:48.807Z,9.747671
2023-03-05T05:35:47.821Z,9.747673
2023-03-05T05:36:48.669Z,9.747667
2023-03-05T05:37:47.954Z,9.747710
2023-03-05T05:38:49.304Z,9.748118
2023-03-05T05:39:47.163Z,9.747547
2023-03-05T05:40:48.818Z,9.747549
2023-03-05T05:41:48.847Z,9.747562
2023-03-05T05:42:47.806Z,9.747753
2023-03-05T05:43:48.217Z,9.747676
2023-03-05T05:44:49.607Z,9.747557
2023-03-05T05:45:47.180Z,9.747894
2023-03-05T05:46:49.753Z,9.747488
2023-03-05T05:47:48.077Z,9.747674
2023-03-05T05:48:50.720Z,9.747970
2023-03-05T05:49:51.172Z,9.747644
2023-03-05T05:50:49.610Z,9.747594
2023-03-05T05:51:48.681Z,9.747783
2023-03-05T05:52:46.988Z,9.747545
2023-03-05T05:53:47.050Z,9.747476
2023-03-05T05:54:48.126Z,9.747573
2023-03-05T05:55:48.708Z,9.747535
2023-03-05T05:56:47.909Z,9.747480
2023-03-05T05:57:47.612Z,9.747519
2023-03-05T05:58:49.641Z,9.747482
2023-03-05T05:59:48.161Z,9.747484
2023-03-05T06:00:47.821Z,9.747618
2023-03-05T06:01:48.682Z,9.747614
2023-03-05T06:02:47.853Z,9.747684
2023-03-05T06:03:47.836Z,9.747779
2023-03-05T06:04:48.681Z,9.747615
2023-03-05T06:05:46.936Z,9.747669
2023-03-05T06:06:48.325Z,9.747705
2023-03-05T06:07:48.328Z,9.747725
2023-03-05T06:08:47.822Z,9.747562
2023-03-05T06:09:48.334Z,9.747612
2023-03-05T06:10:49.111Z,9.747538
2023-03-05T06:11:48.608Z,9.747629
2023-03-05T06:12:51.690Z,9.747631
2023-03-05T06:13:48.333Z,9.747425
2023-03-05T06:14:49.631Z,9.747535
2023-03-05T06:15:48.182Z,9.747574
2023-03-05T06:16:47.571Z,9.747545
2023-03-05T06:17:47.881Z,9.747552
2023-03-05T06:18:49.122Z,9.747601
2023-03-05T06:19:47.800Z,9.747519
2023-03-05T06:20:49.187Z,9.747651
2023-03-05T06:21:46.787Z,9.747538
2023-03-05T06:22:47.664Z,9.747622
2023-03-05T06:23:47.790Z,9.747705
2023-03-05T06:24:47.838Z,9.747576
2023-03-05T06:25:48.119Z,9.747558
2023-03-05T06:26:48.721Z,9.747592
2023-03-05T06:27:50.144Z,9.747637
2023-03-05T06:28:47.695Z,9.747681
2023-03-05T06:29:49.670Z,9.747650
2023-03-05T06:30:49.149Z,9.747522
2023-03-05T06:31:49.305Z,9.747580
2023-03-05T06:32:47.618Z,9.747613
2023-03-05T06:33:49.231Z,9.747619
2023-03-05T06:34:47.401Z,9.747708
2023-03-05T06:35:46.752Z,9.747663
2023-03-05T06:36:47.627Z,9.747596
2023-03-05T06:37:47.734Z,9.747615
2023-03-05T06:38:48.904Z,9.747497
2023-03-05T06:39:48.346Z,9.747733
2023-03-05T06:40:48.200Z,9.747626
2023-03-05T06:41:47.130Z,9.747581
2023-03-05T06:42:47.733Z,9.747737
2023-03-05T06:43:47.413Z,9.747737
2023-03-05T06:44:48.243Z,9.747657
2023-03-05T06:45:50.149Z,9.747653
2023-03-05T06:46:46.603Z,9.747620
2023-03-05T06:47:48.615Z,9.747567
2023-03-05T06:48:47.607Z,9.747666
2023-03-05T06:49:46.950Z,9.747613
2023-03-05T06:50:50.316Z,9.747512
2023-03-05T06:51:48.173Z,9.747478
2023-03-05T06:52:47.882Z,9.747555
2023-03-05T06:53:49.231Z,9.747413
2023-03-05T06:54:51.127Z,9.747449
2023-03-05T06:55:48.334Z,9.747355
2023-03-05T06:56:46.743Z,9.747493
2023-03-05T06:57:47.501Z,9.747502
2023-03-05T06:58:48.119Z,9.747412
2023-03-05T06:59:47.313Z,9.747614
2023-03-05T07:00:49.394Z,9.747553
2023-03-05T07:01:47.190Z,9.747470
2023-03-05T07:02:48.229Z,9.747497
2023-03-05T07:03:48.131Z,9.747507
2023-03-05T07:04:49.132Z,9.747595
2023-03-05T07:05:47.915Z,9.747639
2023-03-05T07:06:47.829Z,9.747561
2023-03-05T07:07:47.364Z,9.747445
2023-03-05T07:08:47.658Z,9.747562
2023-03-05T07:09:50.622Z,9.747517
2023-03-05T07:10:47.824Z,9.747487
2023-03-05T07:11:48.916Z,9.747509
2023-03-05T07:12:48.133Z,9.747525
2023-03-05T07:13:46.685Z,9.747506
2023-03-05T07:14:48.142Z,9.747437
2023-03-05T07:15:47.198Z,9.747464
2023-03-05T07:16:46.370Z,9.747474
2023-03-05T07:17:46.916Z,9.747498
2023-03-05T07:18:48.126Z,9.747518
2023-03-05T07:19:47.190Z,9.747414
2023-03-05T07:20:47.861Z,9.747551
2023-03-05T07:21:47.341Z,9.747540
2023-03-05T07:22:47.358Z,9.747465
2023-03-05T07:23:47.130Z,9.747530
2023-03-05T07:24:47.625Z,9.747395
2023-03-05T07:25:47.286Z,9.747436
2023-03-05T07:26:47.988Z,9.747435
2023-03-05T07:27:47.288Z,9.747560
2023-03-05T07:28:47.642Z,9.747590
2023-03-05T07:29:48.051Z,9.747648
2023-03-05T07:30:47.680Z,9.747612
2023-03-05T07:31:47.326Z,9.747451
2023-03-05T07:32:47.269Z,9.747464
2023-03-05T07:33:46.394Z,9.747370
2023-03-05T07:34:47.198Z,9.747462
2023-03-05T07:35:46.220Z,9.747438
2023-03-05T07:36:46.151Z,9.747547
2023-03-05T07:37:46.136Z,9.747497
2023-03-05T07:38:46.125Z,9.747358
2023-03-05T07:39:47.270Z,9.747407
2023-03-05T07:40:47.148Z,9.747446
2023-03-05T07:41:46.121Z,9.747424
2023-03-05T07:42:46.104Z,9.747643
2023-03-05T07:43:46.112Z,9.747517
2023-03-05T07:44:46.089Z,9.747516
2023-03-05T07:45:46.183Z,9.747435
2023-03-05T07:46:46.067Z,9.747423
2023-03-05T07:47:46.063Z,9.747416
2023-03-05T07:48:46.056Z,9.747412
2023-03-05T07:49:46.045Z,9.747326
2023-03-05T07:50:46.067Z,9.747175
2023-03-05T07:51:46.035Z,9.747421
2023-03-05T07:52:46.069Z,9.747334
2023-03-05T07:53:46.019Z,9.747409
2023-03-05T07:54:46.018Z,9.747795
2023-03-05T07:55:46.034Z,9.747652
2023-03-05T07:56:46.000Z,9.747550
2023-03-05T07:57:46.003Z,9.747506
2023-03-05T07:58:46.042Z,9.747401
2023-03-05T07:59:45.970Z,9.747433
2023-03-05T08:00:46.041Z,9.747520
2023-03-05T08:01:45.957Z,9.747574
2023-03-05T08:02:46.040Z,9.747502
2023-03-05T08:03:46.026Z,9.747499
2023-03-05T08:04:45.940Z,9.747421
2023-03-05T08:05:45.959Z,9.747487
2023-03-05T08:06:45.923Z,9.747562
2023-03-05T08:07:45.937Z,9.747536
2023-03-05T08:08:45.932Z,9.747515
2023-03-05T08:09:45.918Z,9.747462
2023-03-05T08:10:45.925Z,9.747447
2023-03-05T08:11:45.882Z,9.747426
2023-03-05T08:12:45.880Z,9.747367
2023-03-05T08:13:45.870Z,9.747244
2023-03-05T08:14:45.866Z,9.747290
2023-03-05T08:15:45.910Z,9.747313
2023-03-05T08:16:47.910Z,9.747512
2023-03-05T08:17:46.837Z,9.747458
2023-03-05T08:18:45.839Z,9.747424
2023-03-05T08:19:45.817Z,9.747499
2023-03-05T08:20:45.838Z,9.747460
2023-03-05T08:21:45.817Z,9.747361
2023-03-05T08:22:45.810Z,9.747540
2023-03-05T08:23:45.802Z,9.747460
2023-03-05T08:24:45.808Z,9.747438
2023-03-05T08:25:45.823Z,9.747448
2023-03-05T08:26:45.771Z,9.747434
2023-03-05T08:27:45.773Z,9.747379
2023-03-05T08:28:45.757Z,9.747477
2023-03-05T08:29:45.762Z,9.747157
2023-03-05T08:30:45.787Z,9.747171
2023-03-05T08:31:45.734Z,9.747314
2023-03-05T08:32:45.732Z,9.747318
2023-03-05T08:33:45.712Z,9.747371
2023-03-05T08:34:45.707Z,9.747280
2023-03-05T08:35:45.760Z,9.747264
2023-03-05T08:36:45.693Z,9.747281
2023-03-05T08:37:45.690Z,9.747307
2023-03-05T08:38:45.685Z,9.747395
2023-03-05T08:39:45.671Z,9.747396
2023-03-05T08:40:45.687Z,9.747450
2023-03-05T08:41:45.726Z,9.747357
2023-03-05T08:42:45.654Z,9.747362
2023-03-05T08:43:45.687Z,9.747428
2023-03-05T08:44:45.637Z,9.747463
2023-03-05T08:45:45.655Z,9.747454
2023-03-05T08:46:45.658Z,9.747440
2023-03-05T08:47:45.616Z,9.747428
2023-03-05T08:48:45.610Z,9.747448
2023-03-05T08:49:45.588Z,9.747386
2023-03-05T08:50:45.613Z,9.747432
2023-03-05T08:51:45.578Z,9.747413
2023-03-05T08:52:45.602Z,9.747389
2023-03-05T08:53:45.562Z,9.747422
2023-03-05T08:54:45.610Z,9.747441
2023-03-05T08:55:45.574Z,9.747469
2023-03-05T08:56:45.534Z,9.747380
2023-03-05T08:57:45.531Z,9.747383
2023-03-05T08:58:45.532Z,9.747362
2023-03-05T08:59:45.547Z,9.747376
2023-03-05T09:00:45.541Z,9.747348
2023-03-05T09:01:45.571Z,9.747252
2023-03-05T09:02:45.566Z,9.747330
2023-03-05T09:03:45.501Z,9.747349
2023-03-05T09:04:45.479Z,9.747539
2023-03-05T09:05:45.498Z,9.747510
2023-03-05T09:06:45.472Z,9.747533
2023-03-05T09:07:45.452Z,9.747334
2023-03-05T09:08:45.448Z,9.747322
2023-03-05T09:09:45.442Z,9.747273
2023-03-05T09:10:45.469Z,9.747310
2023-03-05T09:11:45.445Z,9.747383
2023-03-05T09:12:45.421Z,9.747293
2023-03-05T09:13:45.411Z,9.747399
2023-03-05T09:14:45.386Z,9.747332
2023-03-05T09:15:46.419Z,9.747141
2023-03-05T09:16:45.561Z,9.747359
2023-03-05T09:17:45.378Z,9.747324
2023-03-05T09:18:45.397Z,9.747278
2023-03-05T09:19:45.385Z,9.747210
2023-03-05T09:20:45.383Z,9.747293
2023-03-05T09:21:45.342Z,9.747308
2023-03-05T09:22:45.336Z,9.747389
2023-03-05T09:23:45.334Z,9.747383
2023-03-05T09:24:45.321Z,9.747328
2023-03-05T09:25:45.343Z,9.747279
2023-03-05T09:26:45.312Z,9.747293
2023-03-05T09:27:45.305Z,9.747426
2023-03-05T09:28:45.307Z,9.747231
2023-03-05T09:29:45.289Z,9.747146
2023-03-05T09:30:45.299Z,9.747045
2023-03-05T09:31:45.311Z,9.747175
2023-03-05T09:32:45.348Z,9.747169
2023-03-05T09:33:45.310Z,9.747374
2023-03-05T09:34:45.240Z,9.747237
2023-03-05T09:35:45.286Z,9.747174
2023-03-05T09:36:45.226Z,9.747295
2023-03-05T09:37:45.227Z,9.747354
2023-03-05T09:38:45.239Z,9.747297
2023-03-05T09:39:45.273Z,9.747293
2023-03-05T09:40:45.234Z,9.747421
2023-03-05T09:41:45.182Z,9.747438
2023-03-05T09:42:45.279Z,9.747483
2023-03-05T09:43:45.184Z,9.747437
2023-03-05T09:44:45.173Z,9.747418
2023-03-05T09:45:45.184Z,9.747436
2023-03-05T09:46:45.145Z,9.747449
2023-03-05T09:47:45.140Z,9.747470
2023-03-05T09:48:45.129Z,9.747467
2023-03-05T09:49:45.190Z,9.747485
2023-03-05T09:50:45.145Z,9.747399
2023-03-05T09:51:45.103Z,9.747380
2023-03-05T09:52:45.174Z,9.747536
2023-03-05T09:53:45.128Z,9.747529
2023-03-05T09:54:45.083Z,9.747521
2023-03-05T09:55:45.118Z,9.747434
2023-03-05T09:56:45.075Z,9.747328
2023-03-05T09:57:45.064Z,9.747359
2023-03-05T09:58:45.054Z,9.747341
2023-03-05T09:59:45.053Z,9.747339
2023-03-05T10:00:45.095Z,9.747261
2023-03-05T10:01:45.044Z,9.747320
2023-03-05T10:02:45.061Z,9.747310
2023-03-05T10:03:45.056Z,9.747368
2023-03-05T10:04:45.013Z,9.747217
2023-03-05T10:05:45.000Z,9.747377
2023-03-05T10:06:45.027Z,9.747385
2023-03-05T10:07:44.996Z,9.747420
2023-03-05T10:08:44.978Z,9.747312
2023-03-05T10:09:44.977Z,9.747470
2023-03-05T10:10:44.968Z,9.747351
2023-03-05T10:11:44.987Z,9.747467
2023-03-05T10:12:44.956Z,9.747430
2023-03-05T10:13:44.949Z,9.747432
2023-03-05T10:14:44.940Z,9.747380
2023-03-05T10:15:44.929Z,9.747412
2023-03-05T10:16:44.981Z,9.747385
2023-03-05T10:17:44.915Z,9.747289
2023-03-05T10:18:44.906Z,9.747327
2023-03-05T10:19:44.905Z,9.747400
2023-03-05T10:20:44.923Z,9.747436
2023-03-05T10:21:44.907Z,9.747439
2023-03-05T10:22:44.877Z,9.747474
2023-03-05T10:23:44.871Z,9.747248
2023-03-05T10:24:44.852Z,9.747505
2023-03-05T10:25:44.864Z,9.747559
2023-03-05T10:26:44.869Z,9.747368
2023-03-05T10:27:44.851Z,9.747404
2023-03-05T10:28:44.836Z,9.747304
2023-03-05T10:29:44.824Z,9.747205
2023-03-05T10:30:44.813Z,9.747446
2023-03-05T10:31:44.912Z,9.747436
2023-03-05T10:32:44.815Z,9.747301
2023-03-05T10:33:44.799Z,9.747526
2023-03-05T10:34:44.793Z,9.747385
2023-03-05T10:35:44.821Z,9.747408
2023-03-05T10:36:44.802Z,9.747400
2023-03-05T10:37:44.793Z,9.747466
2023-03-05T10:38:44.776Z,9.747372
2023-03-05T10:39:44.750Z,9.747434
2023-03-05T10:40:44.748Z,9.747497
2023-03-05T10:41:44.758Z,9.747416
2023-03-05T10:42:44.733Z,9.747423
2023-03-05T10:43:44.788Z,9.747450
2023-03-05T10:44:44.716Z,9.747484
2023-03-05T10:45:44.767Z,9.747418
2023-03-05T10:46:44.727Z,9.747372
2023-03-05T10:47:44.691Z,9.747514
2023-03-05T10:48:44.689Z,9.747478
2023-03-05T10:49:44.677Z,9.747479
2023-03-05T10:50:45.661Z,9.747407
2023-03-05T10:51:44.709Z,9.747373
2023-03-05T10:52:44.663Z,9.747310
2023-03-05T10:53:44.641Z,9.747209
2023-03-05T10:54:44.645Z,9.747370
2023-03-05T10:55:44.631Z,9.747371
2023-03-05T10:56:44.640Z,9.747412
2023-03-05T10:57:44.641Z,9.747489
2023-03-05T10:58:44.606Z,9.747388
2023-03-05T10:59:44.596Z,9.747447
2023-03-05T11:00:44.598Z,9.747515
2023-03-05T11:01:44.680Z,9.747547
2023-03-05T11:02:44.650Z,9.747442
2023-03-05T11:03:44.579Z,9.747502
2023-03-05T11:04:44.570Z,9.747447
2023-03-05T11:05:44.551Z,9.747565
2023-03-05T11:06:44.579Z,9.747350
2023-03-05T11:07:44.561Z,9.747331
2023-03-05T11:08:44.566Z,9.747466
2023-03-05T11:09:44.550Z,9.747671
2023-03-05T11:10:44.521Z,9.747545
2023-03-05T11:11:44.567Z,9.747733
2023-03-05T11:12:44.496Z,9.747570
2023-03-05T11:13:44.486Z,9.747505
2023-03-05T11:14:44.485Z,9.747510
2023-03-05T11:15:44.520Z,9.747701
2023-03-05T11:16:44.493Z,9.747528
2023-03-05T11:17:44.500Z,9.747448
2023-03-05T11:18:44.567Z,9.747398
2023-03-05T11:19:44.445Z,9.747439
2023-03-05T11:20:44.471Z,9.747630
2023-03-05T11:21:44.479Z,9.747672
2023-03-05T11:22:44.418Z,9.747564
2023-03-05T11:23:44.418Z,9.747607
2023-03-05T11:24:44.400Z,9.747533
2023-03-05T11:25:44.404Z,9.747469
2023-03-05T11:26:44.409Z,9.747460
2023-03-05T11:27:44.381Z,9.747641
2023-03-05T11:28:44.392Z,9.747626
2023-03-05T11:29:44.365Z,9.747594
2023-03-05T11:30:44.381Z,9.747226
2023-03-05T11:31:44.381Z,9.747673
2023-03-05T11:32:44.349Z,9.747639
2023-03-05T11:33:44.344Z,9.747528
2023-03-05T11:34:44.321Z,9.747621
2023-03-05T11:35:44.405Z,9.747496
2023-03-05T11:36:44.328Z,9.747433
2023-03-05T11:37:44.324Z,9.747558
2023-03-05T11:38:44.293Z,9.747444
2023-03-05T11:39:44.287Z,9.747446
2023-03-05T11:40:44.278Z,9.747388
2023-03-05T11:41:44.278Z,9.747214
2023-03-05T11:42:44.302Z,9.747357
2023-03-05T11:43:44.277Z,9.747414
2023-03-05T11:44:44.245Z,9.747468